createdAt,value
2023-04-21T00:00:51.815Z,72.24
2023-04-21T00:03:21.102Z,72.43
2023-04-21T00:05:48.660Z,72.69
2023-04-21T00:08:15.711Z,72.36
2023-04-21T00:10:42.567Z,72.36
2023-04-21T00:13:09.186Z,72.56
2023-04-21T00:15:36.059Z,72.37
2023-04-21T00:18:03.718Z,72.96
2023-04-21T00:20:31.692Z,73.26
2023-04-21T00:22:59.130Z,73.61
2023-04-21T00:25:26.007Z,73.55
2023-04-21T00:27:52.646Z,73.75
2023-04-21T00:30:19.209Z,73.72
2023-04-21T00:32:45.748Z,73.78
2023-04-21T00:35:12.337Z,74.05
2023-04-21T00:37:40.241Z,74.33
2023-04-21T00:40:10.062Z,74.79
2023-04-21T00:42:36.681Z,74.66
2023-04-21T00:45:04.765Z,74.75
2023-04-21T00:47:31.594Z,75.33
2023-04-21T00:49:59.010Z,75.07
2023-04-21T00:52:26.610Z,75.48
2023-04-21T00:54:54.027Z,75.68
2023-04-21T00:57:20.926Z,75.92
2023-04-21T00:59:47.995Z,75.57
2023-04-21T01:02:16.658Z,75.93
2023-04-21T01:04:45.678Z,76.56
2023-04-21T01:07:12.784Z,76.58
2023-04-21T01:09:39.360Z,76.79
2023-04-21T01:12:09.930Z,76.87
2023-04-21T01:14:38.156Z,77.00
2023-04-21T01:17:08.082Z,77.15
2023-04-21T01:19:41.943Z,77.02
2023-04-21T01:22:12.804Z,76.91
2023-04-21T01:24:45.429Z,77.17
2023-04-21T01:27:14.877Z,77.01
2023-04-21T01:29:43.613Z,77.35
2023-04-21T01:32:12.658Z,77.42
2023-04-21T01:34:40.874Z,76.83
2023-04-21T01:37:09.506Z,76.68
2023-04-21T01:39:43.957Z,77.25
2023-04-21T01:42:11.061Z,76.97
2023-04-21T01:44:38.575Z,76.71
2023-04-21T01:47:05.266Z,76.62
2023-04-21T01:49:32.280Z,76.67
2023-04-21T01:51:58.833Z,76.46
2023-04-21T01:54:25.543Z,77.17
2023-04-21T01:56:52.113Z,76.68
2023-04-21T01:59:18.953Z,77.27
2023-04-21T02:01:45.794Z,77.36
2023-04-21T02:04:12.415Z,76.96
2023-04-21T02:06:39.009Z,77.34
2023-04-21T02:09:05.558Z,77.47
2023-04-21T02:11:32.130Z,77.12
2023-04-21T02:13:58.664Z,77.63
2023-04-21T02:16:28.537Z,76.95
2023-04-21T02:19:06.210Z,77.46
2023-04-21T02:21:32.763Z,77.08
2023-04-21T02:23:59.377Z,77.55
2023-04-21T02:26:26.023Z,77.51
2023-04-21T02:28:52.528Z,77.46
2023-04-21T02:31:19.093Z,77.79
2023-04-21T02:33:46.079Z,77.44
2023-04-21T02:36:13.171Z,77.31
2023-04-21T02:38:39.862Z,76.99
2023-04-21T02:41:06.399Z,77.11
2023-04-21T02:43:32.885Z,77.25
2023-04-21T02:45:59.425Z,77.57
2023-04-21T02:48:26.969Z,77.20
2023-04-21T02:50:53.744Z,77.64
2023-04-21T02:53:21.111Z,77.50
2023-04-21T02:55:48.180Z,77.28
2023-04-21T02:58:15.153Z,77.71
2023-04-21T03:00:41.878Z,77.14
2023-04-21T03:03:08.639Z,77.60
2023-04-21T03:05:35.403Z,78.09
2023-04-21T03:08:02.038Z,78.33
2023-04-21T03:10:28.687Z,78.15
2023-04-21T03:12:56.357Z,78.41
2023-04-21T03:15:23.048Z,78.39
2023-04-21T03:17:49.810Z,78.58
2023-04-21T03:20:17.107Z,78.48
2023-04-21T03:22:43.714Z,78.55
2023-04-21T03:25:11.421Z,78.79
2023-04-21T03:27:38.088Z,78.77
2023-04-21T03:30:05.472Z,78.99
2023-04-21T03:32:32.033Z,78.77
2023-04-21T03:34:58.675Z,79.00
2023-04-21T03:37:25.225Z,79.02
2023-04-21T03:39:51.873Z,79.27
2023-04-21T03:42:18.456Z,79.09
2023-04-21T03:44:44.983Z,78.59
2023-04-21T03:47:11.497Z,79.29
2023-04-21T03:49:38.128Z,79.48
2023-04-21T03:52:04.981Z,79.48
2023-04-21T03:54:31.534Z,79.39
2023-04-21T03:56:58.117Z,79.32
2023-04-21T03:59:24.678Z,79.55
2023-04-21T04:01:51.229Z,79.18
2023-04-21T04:04:17.902Z,79.33
2023-04-21T04:06:44.642Z,79.65
2023-04-21T04:09:11.257Z,79.66
2023-04-21T04:11:37.782Z,80.17
2023-04-21T04:14:04.290Z,79.50
2023-04-21T04:16:31.149Z,79.52
2023-04-21T04:18:57.780Z,79.50
2023-04-21T04:21:24.290Z,79.75
2023-04-21T04:23:54.159Z,80.21
2023-04-21T04:26:22.756Z,80.35
2023-04-21T04:28:49.360Z,80.03
2023-04-21T04:31:17.335Z,80.33
2023-04-21T04:33:44.341Z,80.30
2023-04-21T04:36:12.116Z,79.82
2023-04-21T04:38:38.772Z,79.93
2023-04-21T04:41:06.318Z,80.24
2023-04-21T04:43:41.964Z,80.50
2023-04-21T04:46:13.566Z,79.99
2023-04-21T04:48:40.748Z,80.06
2023-04-21T04:51:07.579Z,80.53
2023-04-21T04:53:34.233Z,80.31
2023-04-21T04:56:00.834Z,81.21
2023-04-21T04:58:27.420Z,81.36
2023-04-21T05:00:54.438Z,80.26
2023-04-21T05:03:21.227Z,77.58
2023-04-21T05:05:47.996Z,76.00
2023-04-21T05:08:16.497Z,74.87
2023-04-21T05:10:44.503Z,73.29
2023-04-21T05:13:11.090Z,72.42
2023-04-21T05:15:37.671Z,72.38
2023-04-21T05:18:04.358Z,72.64
2023-04-21T05:20:31.035Z,72.73
2023-04-21T05:22:57.647Z,73.00
2023-04-21T05:25:24.342Z,73.23
2023-04-21T05:27:50.997Z,73.71
2023-04-21T05:30:17.539Z,74.26
2023-04-21T05:32:44.424Z,73.25
2023-04-21T05:35:11.124Z,72.69
2023-04-21T05:37:37.700Z,72.27
2023-04-21T05:40:04.527Z,71.74
2023-04-21T05:42:31.255Z,71.76
2023-04-21T05:44:58.270Z,71.65
2023-04-21T05:47:24.947Z,72.08
2023-04-21T05:49:53.930Z,72.03
2023-04-21T05:52:23.753Z,71.71
2023-04-21T05:54:50.527Z,71.15
2023-04-21T05:57:17.938Z,70.82
2023-04-21T05:59:44.583Z,70.88
2023-04-21T06:02:12.234Z,70.88
2023-04-21T06:04:38.948Z,71.03
2023-04-21T06:07:07.338Z,71.44
2023-04-21T06:09:35.357Z,71.53
2023-04-21T06:12:02.767Z,71.96
2023-04-21T06:14:29.348Z,72.10
2023-04-21T06:16:56.058Z,72.25
2023-04-21T06:19:22.667Z,72.10
2023-04-21T06:21:49.292Z,72.06
2023-04-21T06:24:16.311Z,71.79
2023-04-21T06:26:42.976Z,71.63
2023-04-21T06:29:09.555Z,71.76
2023-04-21T06:31:36.195Z,71.33
2023-04-21T06:34:02.804Z,71.64
2023-04-21T06:36:29.407Z,71.22
2023-04-21T06:38:56.204Z,71.42
2023-04-21T06:41:24.715Z,71.06
2023-04-21T06:43:51.528Z,70.82
2023-04-21T06:46:18.438Z,70.95
2023-04-21T06:48:45.056Z,71.18
2023-04-21T06:51:11.654Z,70.76
2023-04-21T06:53:38.439Z,70.47
2023-04-21T06:56:05.289Z,70.35
2023-04-21T06:58:32.012Z,70.20
2023-04-21T07:00:59.742Z,70.01
2023-04-21T07:03:26.460Z,70.04
2023-04-21T07:05:53.231Z,69.60
2023-04-21T07:08:19.786Z,69.20
2023-04-21T07:10:46.407Z,69.44
2023-04-21T07:13:12.968Z,69.08
2023-04-21T07:15:39.608Z,68.87
2023-04-21T07:18:06.255Z,69.28
2023-04-21T07:20:32.810Z,68.61
2023-04-21T07:22:59.352Z,68.25
2023-04-21T07:25:26.196Z,67.74
2023-04-21T07:27:52.883Z,67.45
2023-04-21T07:30:19.722Z,67.31
2023-04-21T07:32:46.896Z,66.83
2023-04-21T07:35:13.854Z,66.54
2023-04-21T07:37:40.668Z,65.81
2023-04-21T07:40:08.984Z,65.35
2023-04-21T07:42:35.615Z,64.68
2023-04-21T07:45:02.730Z,63.95
2023-04-21T07:47:29.509Z,63.52
2023-04-21T07:49:56.436Z,63.87
2023-04-21T07:52:23.275Z,63.93
2023-04-21T07:54:50.641Z,63.75
2023-04-21T07:57:17.489Z,63.16
2023-04-21T07:59:44.383Z,62.71
2023-04-21T08:02:11.045Z,62.43
2023-04-21T08:04:38.138Z,61.88
2023-04-21T08:07:05.448Z,62.41
2023-04-21T08:09:32.248Z,61.56
2023-04-21T08:11:58.953Z,61.24
2023-04-21T08:14:26.952Z,59.90
2023-04-21T08:16:56.562Z,59.51
2023-04-21T08:19:23.664Z,58.13
2023-04-21T08:21:50.308Z,58.66
2023-04-21T08:24:16.958Z,58.70
2023-04-21T08:26:43.700Z,58.16
2023-04-21T08:29:10.834Z,57.61
2023-04-21T08:31:37.604Z,57.68
2023-04-21T08:34:04.415Z,57.14
2023-04-21T08:36:31.986Z,56.86
2023-04-21T08:38:59.362Z,56.66
2023-04-21T08:41:27.211Z,56.46
2023-04-21T08:43:54.027Z,56.36
2023-04-21T08:46:21.680Z,56.02
2023-04-21T08:48:48.286Z,55.73
2023-04-21T08:51:23.825Z,54.70
2023-04-21T08:53:50.617Z,54.60
2023-04-21T08:56:17.250Z,55.02
2023-04-21T08:58:43.805Z,54.59
2023-04-21T09:01:11.199Z,54.89
2023-04-21T09:03:38.393Z,54.98
2023-04-21T09:06:07.821Z,54.21
2023-04-21T09:08:38.122Z,54.19
2023-04-21T09:11:04.762Z,54.97
2023-04-21T09:13:36.989Z,53.45
2023-04-21T09:16:08.419Z,54.26
2023-04-21T09:18:40.177Z,53.55
2023-04-21T09:21:15.992Z,52.40
2023-04-21T09:23:47.362Z,51.72
2023-04-21T09:26:14.396Z,52.14
2023-04-21T09:28:42.993Z,52.36
2023-04-21T09:31:18.116Z,52.28
2023-04-21T09:33:57.561Z,51.56
2023-04-21T09:36:28.385Z,51.52
2023-04-21T09:39:12.862Z,50.81
2023-04-21T09:41:41.982Z,50.60
2023-04-21T09:44:08.680Z,50.18
2023-04-21T09:46:37.141Z,50.62
2023-04-21T09:49:04.940Z,50.22
2023-04-21T09:51:56.239Z,49.57
2023-04-21T09:54:29.764Z,49.00
2023-04-21T09:57:01.717Z,49.90
2023-04-21T09:59:40.786Z,49.85
2023-04-21T10:02:09.118Z,49.07
2023-04-21T10:04:38.659Z,48.83
2023-04-21T10:07:06.688Z,49.12
2023-04-21T10:09:54.827Z,49.35
2023-04-21T10:12:22.846Z,48.52
2023-04-21T10:14:56.377Z,48.43
2023-04-21T10:17:25.282Z,48.57
2023-04-21T10:19:59.761Z,47.78
2023-04-21T10:22:28.834Z,47.70
2023-04-21T10:24:57.033Z,48.35
2023-04-21T10:27:32.653Z,48.05
2023-04-21T10:29:59.773Z,47.48
2023-04-21T10:32:42.813Z,47.68
2023-04-21T10:35:17.929Z,48.60
2023-04-21T10:37:48.893Z,47.91
2023-04-21T10:40:44.258Z,48.09
2023-04-21T10:43:49.629Z,47.61
2023-04-21T10:46:37.359Z,46.24
2023-04-21T10:49:28.829Z,45.91
2023-04-21T10:51:58.514Z,45.88
2023-04-21T10:54:49.998Z,44.98
2023-04-21T10:57:18.796Z,45.48
2023-04-21T10:59:46.654Z,44.30
2023-04-21T11:02:15.143Z,44.46
2023-04-21T11:04:47.845Z,44.75
2023-04-21T11:07:20.010Z,43.72
2023-04-21T11:09:48.183Z,42.83
2023-04-21T11:12:17.964Z,42.78
2023-04-21T11:14:48.064Z,41.64
2023-04-21T11:17:20.212Z,42.10
2023-04-21T11:19:54.046Z,41.57
2023-04-21T11:22:26.452Z,42.39
2023-04-21T11:24:57.033Z,42.04
2023-04-21T11:27:26.870Z,40.58
2023-04-21T11:29:53.520Z,39.84
2023-04-21T11:32:21.465Z,40.45
2023-04-21T11:34:48.197Z,38.95
2023-04-21T11:37:23.435Z,38.77
2023-04-21T11:39:50.081Z,39.07
2023-04-21T11:42:22.844Z,38.86
2023-04-21T11:44:49.421Z,38.49
2023-04-21T11:47:18.311Z,38.78
2023-04-21T11:49:50.578Z,38.82
2023-04-21T11:52:28.751Z,39.06
2023-04-21T11:55:06.539Z,38.38
2023-04-21T11:57:34.121Z,38.89
2023-04-21T12:00:08.866Z,39.09
2023-04-21T12:02:35.816Z,40.60
2023-04-21T12:05:04.445Z,42.70
2023-04-21T12:07:36.520Z,43.97
2023-04-21T12:10:08.941Z,45.71
2023-04-21T12:12:37.297Z,45.40
2023-04-21T12:15:04.587Z,45.29
2023-04-21T12:17:44.490Z,45.66
2023-04-21T12:20:12.025Z,46.84
2023-04-21T12:22:38.614Z,46.61
2023-04-21T12:25:05.892Z,47.28
2023-04-21T12:27:32.559Z,46.15
2023-04-21T12:29:59.064Z,46.28
2023-04-21T12:32:26.314Z,44.24
2023-04-21T12:34:52.996Z,42.62
2023-04-21T12:37:19.595Z,41.04
2023-04-21T12:39:46.147Z,40.66
2023-04-21T12:42:12.713Z,40.50
2023-04-21T12:44:39.576Z,39.87
2023-04-21T12:47:06.397Z,39.50
2023-04-21T12:49:32.969Z,40.11
2023-04-21T12:51:59.740Z,40.20
2023-04-21T12:54:26.299Z,39.73
2023-04-21T12:56:52.885Z,40.20
2023-04-21T12:59:19.457Z,40.23
2023-04-21T13:01:46.142Z,40.17
2023-04-21T13:04:13.105Z,40.01
2023-04-21T13:06:40.095Z,40.13
2023-04-21T13:09:06.843Z,40.75
2023-04-21T13:11:33.680Z,40.73
2023-04-21T13:14:00.299Z,40.74
2023-04-21T13:16:28.619Z,41.58
2023-04-21T13:18:56.793Z,42.19
2023-04-21T13:21:23.321Z,42.07
2023-04-21T13:23:49.936Z,43.66
2023-04-21T13:26:17.318Z,44.56
2023-04-21T13:28:44.080Z,44.78
2023-04-21T13:31:10.816Z,43.96
2023-04-21T13:33:37.880Z,43.29
2023-04-21T13:36:04.779Z,43.04
2023-04-21T13:38:32.156Z,41.70
2023-04-21T13:40:58.910Z,40.89
2023-04-21T13:43:25.603Z,39.89
2023-04-21T13:45:52.386Z,40.72
2023-04-21T13:48:24.153Z,39.82
2023-04-21T13:50:51.785Z,39.88
2023-04-21T13:53:20.645Z,40.13
2023-04-21T13:55:47.959Z,39.71
2023-04-21T13:58:16.836Z,38.78
2023-04-21T14:00:43.935Z,38.62
2023-04-21T14:03:11.675Z,38.61
2023-04-21T14:05:38.991Z,38.63
2023-04-21T14:08:06.117Z,38.77
2023-04-21T14:10:32.861Z,38.43
2023-04-21T14:12:59.492Z,37.37
2023-04-21T14:15:26.345Z,36.66
2023-04-21T14:17:53.638Z,37.28
2023-04-21T14:20:20.517Z,37.69
2023-04-21T14:22:47.341Z,38.54
2023-04-21T14:25:13.947Z,38.36
2023-04-21T14:27:40.465Z,38.99
2023-04-21T14:30:07.795Z,39.23
2023-04-21T14:32:34.411Z,39.38
2023-04-21T14:35:03.355Z,39.66
2023-04-21T14:37:30.244Z,40.07
2023-04-21T14:39:56.764Z,40.10
2023-04-21T14:42:23.418Z,39.73
2023-04-21T14:44:50.105Z,39.75
2023-04-21T14:47:16.835Z,39.96
2023-04-21T14:49:43.588Z,39.35
2023-04-21T14:52:10.205Z,38.87
2023-04-21T14:54:36.848Z,37.85
2023-04-21T14:57:19.009Z,38.07
2023-04-21T14:59:52.148Z,37.90
2023-04-21T15:02:19.601Z,38.17
2023-04-21T15:04:46.390Z,38.21
2023-04-21T15:07:13.528Z,38.54
2023-04-21T15:09:41.176Z,38.34
2023-04-21T15:12:07.756Z,38.30
2023-04-21T15:14:34.496Z,38.18
2023-04-21T15:17:01.213Z,38.40
2023-04-21T15:19:27.770Z,39.23
2023-04-21T15:21:54.310Z,39.34
2023-04-21T15:24:20.861Z,39.49
2023-04-21T15:26:47.400Z,39.75
2023-04-21T15:29:14.129Z,40.33
2023-04-21T15:31:41.101Z,39.03
2023-04-21T15:34:08.035Z,38.89
2023-04-21T15:36:34.661Z,39.21
2023-04-21T15:39:01.293Z,38.81
2023-04-21T15:41:29.610Z,38.64
2023-04-21T15:43:56.269Z,39.27
2023-04-21T15:46:23.066Z,39.73
2023-04-21T15:48:49.799Z,40.06
2023-04-21T15:51:16.706Z,41.05
2023-04-21T15:53:47.644Z,40.53
2023-04-21T15:56:17.846Z,41.10
2023-04-21T15:58:44.687Z,42.33
2023-04-21T16:01:11.578Z,41.01
2023-04-21T16:03:40.296Z,40.97
2023-04-21T16:06:07.599Z,41.18
2023-04-21T16:08:34.409Z,41.30
2023-04-21T16:11:01.317Z,42.50
2023-04-21T16:13:28.015Z,43.05
2023-04-21T16:15:54.630Z,44.32
2023-04-21T16:18:21.605Z,43.88
2023-04-21T16:20:48.394Z,41.93
2023-04-21T16:23:15.452Z,41.63
2023-04-21T16:25:42.760Z,42.20
2023-04-21T16:28:09.807Z,42.80
2023-04-21T16:30:36.621Z,42.98
2023-04-21T16:33:03.264Z,42.49
2023-04-21T16:35:29.955Z,42.02
2023-04-21T16:37:56.627Z,41.95
2023-04-21T16:40:24.328Z,41.44
2023-04-21T16:42:51.121Z,40.71
2023-04-21T16:45:17.789Z,39.14
2023-04-21T16:47:44.465Z,38.38
2023-04-21T16:50:11.391Z,37.90
2023-04-21T16:52:38.322Z,38.58
2023-04-21T16:55:05.356Z,39.36
2023-04-21T16:57:32.992Z,39.74
2023-04-21T16:59:59.744Z,40.71
2023-04-21T17:02:26.485Z,41.18
2023-04-21T17:04:53.206Z,41.89
2023-04-21T17:07:19.709Z,42.56
2023-04-21T17:09:46.488Z,42.83
2023-04-21T17:12:13.092Z,43.23
2023-04-21T17:14:40.380Z,43.89
2023-04-21T17:17:07.231Z,44.47
2023-04-21T17:19:33.974Z,44.60
2023-04-21T17:22:00.604Z,44.75
2023-04-21T17:24:29.546Z,45.61
2023-04-21T17:26:59.787Z,45.49
2023-04-21T17:29:26.999Z,45.58
2023-04-21T17:31:53.768Z,45.82
2023-04-21T17:34:20.504Z,46.62
2023-04-21T17:36:47.122Z,46.34
2023-04-21T17:39:14.147Z,46.92
2023-04-21T17:41:42.000Z,47.41
2023-04-21T17:44:08.615Z,47.40
2023-04-21T17:46:35.404Z,47.81
2023-04-21T17:49:02.048Z,48.36
2023-04-21T17:51:28.791Z,48.54
2023-04-21T17:53:55.328Z,48.46
2023-04-21T17:56:22.435Z,49.37
2023-04-21T17:58:48.959Z,49.28
2023-04-21T18:01:15.545Z,49.36
2023-04-21T18:03:43.333Z,50.45
2023-04-21T18:06:11.299Z,50.25
2023-04-21T18:08:38.388Z,50.18
2023-04-21T18:11:06.209Z,50.96
2023-04-21T18:13:32.721Z,51.25
2023-04-21T18:15:59.297Z,50.98
2023-04-21T18:18:26.230Z,50.97
2023-04-21T18:20:52.948Z,51.29
2023-04-21T18:23:19.478Z,51.41
2023-04-21T18:25:46.599Z,51.12
2023-04-21T18:28:13.422Z,50.53
2023-04-21T18:30:40.197Z,51.23
2023-04-21T18:33:06.984Z,51.47
2023-04-21T18:35:34.216Z,51.49
2023-04-21T18:38:01.228Z,52.06
2023-04-21T18:40:28.046Z,52.66
2023-04-21T18:42:54.694Z,52.38
2023-04-21T18:45:21.260Z,52.86
2023-04-21T18:47:47.816Z,52.82
2023-04-21T18:50:14.452Z,53.73
2023-04-21T18:52:41.245Z,53.55
2023-04-21T18:55:08.748Z,54.67
2023-04-21T18:57:35.417Z,54.96
2023-04-21T19:00:02.123Z,55.42
2023-04-21T19:02:30.041Z,55.86
2023-04-21T19:04:56.720Z,56.02
2023-04-21T19:07:23.225Z,56.93
2023-04-21T19:09:49.908Z,56.96
2023-04-21T19:12:16.522Z,57.20
2023-04-21T19:14:47.628Z,57.42
2023-04-21T19:17:15.124Z,57.84
2023-04-21T19:19:42.242Z,58.78
2023-04-21T19:22:08.767Z,58.73
2023-04-21T19:24:35.800Z,58.80
2023-04-21T19:27:03.778Z,58.94
2023-04-21T19:29:31.278Z,59.35
2023-04-21T19:31:58.674Z,59.33
2023-04-21T19:34:25.385Z,59.82
2023-04-21T19:36:52.911Z,59.94
2023-04-21T19:39:19.926Z,60.47
2023-04-21T19:41:46.474Z,60.73
2023-04-21T19:44:13.058Z,60.77
2023-04-21T19:46:42.847Z,60.54
2023-04-21T19:49:13.047Z,60.56
2023-04-21T19:51:41.065Z,61.06
2023-04-21T19:54:11.363Z,60.73
2023-04-21T19:56:39.476Z,60.72
2023-04-21T19:59:06.465Z,60.78
2023-04-21T20:01:33.987Z,61.70
2023-04-21T20:04:01.305Z,61.79
2023-04-21T20:06:28.737Z,61.64
2023-04-21T20:08:55.891Z,61.96
2023-04-21T20:11:23.308Z,62.69
2023-04-21T20:13:50.491Z,62.21
2023-04-21T20:16:20.205Z,63.02
2023-04-21T20:18:46.943Z,63.20
2023-04-21T20:21:13.586Z,62.84
2023-04-21T20:23:40.238Z,63.37
2023-04-21T20:26:06.739Z,63.34
2023-04-21T20:28:33.356Z,63.15
2023-04-21T20:31:00.125Z,63.27
2023-04-21T20:33:27.409Z,63.14
2023-04-21T20:35:54.069Z,63.54
2023-04-21T20:38:23.839Z,63.99
2023-04-21T20:40:52.426Z,63.68
2023-04-21T20:43:19.244Z,63.81
2023-04-21T20:45:47.488Z,64.67
2023-04-21T20:48:14.101Z,64.31
2023-04-21T20:50:42.224Z,63.95
2023-04-21T20:53:10.109Z,64.14
2023-04-21T20:55:36.797Z,63.87
2023-04-21T20:58:04.620Z,64.82
2023-04-21T21:00:33.038Z,65.15
2023-04-21T21:02:59.950Z,64.64
2023-04-21T21:05:30.521Z,65.00
2023-04-21T21:07:57.196Z,64.31
2023-04-21T21:10:23.778Z,64.77
2023-04-21T21:12:50.383Z,64.97
2023-04-21T21:15:17.052Z,65.21
2023-04-21T21:17:43.617Z,64.86
2023-04-21T21:20:10.807Z,65.05
2023-04-21T21:22:37.375Z,65.35
2023-04-21T21:25:04.114Z,65.64
2023-04-21T21:27:30.755Z,65.13
2023-04-21T21:29:57.272Z,65.48
2023-04-21T21:32:23.840Z,65.80
2023-04-21T21:34:52.156Z,65.68
2023-04-21T21:37:19.248Z,66.06
2023-04-21T21:39:45.786Z,65.75
2023-04-21T21:42:12.359Z,65.90
2023-04-21T21:44:38.961Z,65.69
2023-04-21T21:47:05.724Z,66.51
2023-04-21T21:49:32.560Z,66.58
2023-04-21T21:51:59.213Z,67.14
2023-04-21T21:54:25.908Z,67.08
2023-04-21T21:56:52.538Z,66.79
2023-04-21T21:59:19.168Z,66.54
2023-04-21T22:01:45.762Z,66.93
2023-04-21T22:04:12.442Z,66.97
2023-04-21T22:06:39.156Z,66.64
2023-04-21T22:09:06.297Z,66.63
2023-04-21T22:11:32.886Z,66.89
2023-04-21T22:14:07.993Z,67.26
2023-04-21T22:16:42.974Z,67.07
2023-04-21T22:19:10.567Z,66.84
2023-04-21T22:21:37.137Z,67.37
2023-04-21T22:24:04.014Z,67.27
2023-04-21T22:26:31.367Z,67.30
2023-04-21T22:28:57.887Z,67.95
2023-04-21T22:31:24.474Z,68.11
2023-04-21T22:33:51.046Z,67.50
2023-04-21T22:36:17.597Z,67.64
2023-04-21T22:38:45.733Z,67.71
2023-04-21T22:41:13.461Z,68.43
2023-04-21T22:43:39.982Z,68.24
2023-04-21T22:46:07.110Z,68.37
2023-04-21T22:48:36.194Z,68.41
2023-04-21T22:51:03.657Z,68.65
2023-04-21T22:53:30.865Z,68.13
2023-04-21T22:55:57.498Z,68.57
2023-04-21T22:58:24.517Z,69.03
2023-04-21T23:00:51.737Z,69.08
2023-04-21T23:03:18.531Z,69.22
2023-04-21T23:05:45.245Z,69.09
2023-04-21T23:08:11.894Z,69.86
2023-04-21T23:10:38.457Z,69.47
2023-04-21T23:13:05.338Z,69.07
2023-04-21T23:15:32.211Z,68.85
2023-04-21T23:17:58.915Z,69.78
2023-04-21T23:20:25.698Z,69.75
2023-04-21T23:22:52.401Z,69.22
2023-04-21T23:25:19.007Z,69.17
2023-04-21T23:27:45.665Z,69.57
2023-04-21T23:30:12.802Z,69.28
2023-04-21T23:32:39.641Z,69.72
2023-04-21T23:35:06.814Z,69.88
2023-04-21T23:37:33.655Z,69.89
2023-04-21T23:40:00.191Z,69.69
2023-04-21T23:42:26.765Z,69.92
2023-04-21T23:44:53.460Z,69.62
2023-04-21T23:47:20.559Z,69.72
2023-04-21T23:49:47.155Z,69.44
2023-04-21T23:52:14.975Z,70.38
2023-04-21T23:54:41.533Z,70.09
2023-04-21T23:57:08.144Z,70.65
2023-04-21T23:59:34.751Z,70.80
